createdAt,value
2023-04-28T04:01:43.874Z,91053.97
2023-04-28T04:04:28.945Z,91048.44
2023-04-28T04:07:14.088Z,91050.13
2023-04-28T04:09:58.986Z,91040.50
2023-04-28T04:12:43.856Z,91048.69
2023-04-28T04:15:28.673Z,91063.53
2023-04-28T04:18:13.596Z,91055.34
2023-04-28T04:20:58.477Z,91056.06
2023-04-28T04:23:43.420Z,91056.50
2023-04-28T04:26:28.257Z,91056.47
2023-04-28T04:29:13.230Z,91058.38
2023-04-28T04:31:58.229Z,91043.22
2023-04-28T04:34:43.049Z,91044.41
2023-04-28T04:37:28.229Z,91046.81
2023-04-28T04:40:12.863Z,91056.28
2023-04-28T04:42:57.809Z,91056.53
2023-04-28T04:45:42.675Z,91061.81
2023-04-28T04:48:27.641Z,91061.66
2023-04-28T04:51:12.581Z,91067.81
2023-04-28T04:53:57.459Z,91061.94
2023-04-28T04:56:42.217Z,91064.94
2023-04-28T04:59:27.337Z,91048.16
2023-04-28T05:02:12.234Z,91033.03
2023-04-28T05:05:08.211Z,91042.06
2023-04-28T05:08:01.638Z,91051.19
2023-04-28T05:10:46.515Z,91061.25
2023-04-28T05:13:31.421Z,91048.00
2023-04-28T05:16:16.360Z,91045.50
2023-04-28T05:19:01.201Z,91037.13
2023-04-28T05:21:46.047Z,91043.38
2023-04-28T05:24:31.000Z,91046.69
2023-04-28T05:27:15.943Z,91051.09
2023-04-28T05:30:00.727Z,91054.72
2023-04-28T05:32:45.662Z,91061.75
2023-04-28T05:35:30.639Z,91053.44
2023-04-28T05:38:15.341Z,91052.25
2023-04-28T05:41:00.176Z,91051.78
2023-04-28T05:43:45.009Z,91052.78
2023-04-28T05:46:31.228Z,91049.41
2023-04-28T05:49:16.393Z,91046.78
2023-04-28T05:52:01.330Z,91047.25
2023-04-28T05:54:46.085Z,91053.50
2023-04-28T05:57:33.961Z,91053.75
2023-04-28T06:00:26.593Z,91060.22
2023-04-28T06:03:11.684Z,91065.75
2023-04-28T06:05:56.756Z,91058.28
2023-04-28T06:08:41.550Z,91055.84
2023-04-28T06:11:26.444Z,91068.25
2023-04-28T06:14:11.323Z,91061.91
2023-04-28T06:16:56.336Z,91063.75
2023-04-28T06:19:41.281Z,91060.16
2023-04-28T06:22:26.179Z,91059.22
2023-04-28T06:25:11.093Z,91049.16
2023-04-28T06:27:56.062Z,91068.16
2023-04-28T06:30:40.989Z,91064.97
2023-04-28T06:33:26.054Z,91065.44
2023-04-28T06:36:10.865Z,91075.75
2023-04-28T06:38:55.939Z,91072.09
2023-04-28T06:41:40.889Z,91071.94
2023-04-28T06:44:25.764Z,91063.94
2023-04-28T06:47:10.694Z,91071.47
2023-04-28T06:49:55.536Z,91063.97
2023-04-28T06:52:40.354Z,91064.16
2023-04-28T06:55:25.229Z,91080.13
2023-04-28T06:58:10.150Z,91067.56
2023-04-28T07:00:55.019Z,91057.16
2023-04-28T07:03:39.896Z,91064.75
2023-04-28T07:06:24.882Z,91069.47
2023-04-28T07:09:09.711Z,91057.81
2023-04-28T07:11:55.143Z,91054.97
2023-04-28T07:14:40.571Z,91049.50
2023-04-28T07:17:25.531Z,91048.19
2023-04-28T07:20:10.337Z,91060.53
2023-04-28T07:22:55.149Z,91060.91
2023-04-28T07:25:40.142Z,91066.72
2023-04-28T07:28:25.038Z,91065.66
2023-04-28T07:31:09.979Z,91064.94
2023-04-28T07:33:54.829Z,91056.59
2023-04-28T07:36:39.704Z,91062.63
2023-04-28T07:39:24.508Z,91048.91
2023-04-28T07:42:09.350Z,91047.41
2023-04-28T07:44:54.229Z,91037.91
2023-04-28T07:47:39.290Z,91043.97
2023-04-28T07:50:24.197Z,91042.00
2023-04-28T07:53:09.265Z,91049.28
2023-04-28T07:55:54.379Z,91053.19
2023-04-28T07:58:39.239Z,91060.75
2023-04-28T08:01:24.317Z,91052.28
2023-04-28T08:04:09.611Z,91042.97
2023-04-28T08:06:54.644Z,91052.09
2023-04-28T08:09:41.123Z,91050.47
2023-04-28T08:12:26.414Z,91046.47
2023-04-28T08:15:11.443Z,91054.53
2023-04-28T08:17:56.316Z,91063.25
2023-04-28T08:20:41.011Z,91063.63
2023-04-28T08:23:25.802Z,91052.19
2023-04-28T08:26:10.706Z,91046.25
2023-04-28T08:28:55.597Z,91041.34
2023-04-28T08:31:40.478Z,91038.53
2023-04-28T08:34:25.330Z,91040.78
2023-04-28T08:37:10.207Z,91040.41
2023-04-28T08:39:55.081Z,91036.53
2023-04-28T08:42:39.918Z,91042.41
2023-04-28T08:45:25.850Z,91046.44
2023-04-28T08:48:11.777Z,91053.72
2023-04-28T08:50:56.630Z,91058.59
2023-04-28T08:54:06.177Z,91043.53
2023-04-28T08:56:45.983Z,91053.47
2023-04-28T08:59:30.988Z,91045.75
2023-04-28T09:02:15.750Z,91044.38
2023-04-28T09:05:00.843Z,91037.81
2023-04-28T09:07:46.083Z,91036.28
2023-04-28T09:10:30.860Z,91034.22
2023-04-28T09:13:15.847Z,91041.72
2023-04-28T09:16:00.587Z,91053.00
2023-04-28T09:18:45.497Z,91058.44
2023-04-28T09:21:30.211Z,91053.94
2023-04-28T09:24:15.106Z,91053.81
2023-04-28T09:26:59.933Z,91053.63
2023-04-28T09:29:44.823Z,91046.09
2023-04-28T09:32:29.919Z,91034.09
2023-04-28T09:35:14.692Z,91017.78
2023-04-28T09:37:59.657Z,91011.88
2023-04-28T09:40:44.651Z,91020.47
2023-04-28T09:43:29.567Z,91018.97
2023-04-28T09:46:14.397Z,91016.69
2023-04-28T09:48:59.272Z,91013.03
2023-04-28T09:51:44.295Z,91015.84
2023-04-28T09:54:29.006Z,91013.31
2023-04-28T09:57:14.913Z,91010.44
2023-04-28T09:59:59.869Z,91006.44
2023-04-28T10:02:45.085Z,91006.31
2023-04-28T10:05:30.647Z,91003.16
2023-04-28T10:08:15.671Z,90985.56
2023-04-28T10:11:00.504Z,90993.19
2023-04-28T10:13:45.500Z,90978.13
2023-04-28T10:16:30.568Z,90969.97
2023-04-28T10:19:15.228Z,90970.03
2023-04-28T10:22:00.199Z,90957.59
2023-04-28T10:24:45.005Z,90949.16
2023-04-28T10:27:29.838Z,90950.59
2023-04-28T10:30:26.253Z,90945.59
2023-04-28T10:33:13.311Z,90948.03
2023-04-28T10:35:58.021Z,90946.28
2023-04-28T10:38:42.811Z,90944.44
2023-04-28T10:41:27.744Z,90949.91
2023-04-28T10:44:12.586Z,90941.03
2023-04-28T10:46:57.568Z,90956.53
2023-04-28T10:49:42.206Z,90947.94
2023-04-28T10:52:27.215Z,90943.50
2023-04-28T10:55:21.506Z,90957.50
2023-04-28T10:58:07.135Z,90967.00
2023-04-28T11:00:52.090Z,90965.47
2023-04-28T11:03:37.133Z,90959.72
2023-04-28T11:06:21.795Z,90956.38
2023-04-28T11:09:06.718Z,90960.88
2023-04-28T11:11:51.521Z,90966.69
2023-04-28T11:14:36.504Z,90955.34
2023-04-28T11:17:21.297Z,90948.50
2023-04-28T11:20:06.216Z,90957.91
2023-04-28T11:22:50.945Z,90962.97
2023-04-28T11:25:35.837Z,90962.97
2023-04-28T11:28:20.699Z,90946.03
2023-04-28T11:31:05.810Z,90948.41
2023-04-28T11:33:50.720Z,90950.91
2023-04-28T11:36:35.559Z,90952.75
2023-04-28T11:39:20.599Z,90956.78
2023-04-28T11:42:05.433Z,90946.19
2023-04-28T11:44:50.371Z,90935.38
2023-04-28T11:47:35.216Z,90935.09
2023-04-28T11:50:19.969Z,90921.78
2023-04-28T11:53:04.712Z,90922.16
2023-04-28T11:55:49.388Z,90916.69
2023-04-28T11:58:34.551Z,90918.09
2023-04-28T12:01:19.660Z,90919.06
2023-04-28T12:04:04.627Z,90933.28
2023-04-28T12:06:49.287Z,90937.41
2023-04-28T12:09:34.345Z,90921.59
2023-04-28T12:12:22.935Z,90917.78
2023-04-28T12:15:10.836Z,90915.72
2023-04-28T12:17:55.791Z,90909.47
2023-04-28T12:20:40.544Z,90902.41
2023-04-28T12:23:25.448Z,90909.16
2023-04-28T12:26:10.232Z,90899.31
2023-04-28T12:28:55.020Z,90898.97
2023-04-28T12:31:40.091Z,90915.00
2023-04-28T12:34:25.001Z,90923.66
2023-04-28T12:37:09.950Z,90934.00
2023-04-28T12:39:54.781Z,90916.44
2023-04-28T12:42:39.590Z,90928.06
2023-04-28T12:45:24.365Z,90939.16
2023-04-28T12:48:09.340Z,90921.44
2023-04-28T12:50:54.142Z,90936.16
2023-04-28T12:53:39.137Z,90938.66
2023-04-28T12:56:23.914Z,90937.22
2023-04-28T12:59:08.698Z,90925.31
2023-04-28T13:01:53.657Z,90924.66
2023-04-28T13:04:38.598Z,90927.28
2023-04-28T13:07:23.356Z,90944.44
2023-04-28T13:10:08.061Z,90935.50
2023-04-28T13:12:52.983Z,90936.75
2023-04-28T13:15:38.897Z,90933.97
2023-04-28T13:18:23.796Z,90922.53
2023-04-28T13:21:08.687Z,90926.19
2023-04-28T13:23:53.642Z,90916.31
2023-04-28T13:26:38.618Z,90913.16
2023-04-28T13:29:23.441Z,90904.88
2023-04-28T13:32:08.631Z,90896.53
2023-04-28T13:34:53.288Z,90915.03
2023-04-28T13:37:38.300Z,90898.19
2023-04-28T13:40:23.112Z,90901.47
2023-04-28T13:43:07.866Z,90912.09
2023-04-28T13:45:52.743Z,90905.16
2023-04-28T13:48:37.623Z,90898.13
2023-04-28T13:51:22.627Z,90890.50
2023-04-28T13:54:07.358Z,90900.53
2023-04-28T13:56:52.211Z,90897.03
2023-04-28T13:59:36.970Z,90900.34
2023-04-28T14:02:22.082Z,90882.38
2023-04-28T14:05:06.756Z,90886.44
2023-04-28T14:07:51.738Z,90883.09
2023-04-28T14:10:36.752Z,90888.72
2023-04-28T14:13:21.638Z,90879.84
2023-04-28T14:16:06.528Z,90881.16
2023-04-28T14:18:51.481Z,90871.53
2023-04-28T14:21:36.444Z,90881.16
2023-04-28T14:24:21.206Z,90876.50
2023-04-28T14:27:06.093Z,90871.28
2023-04-28T14:29:51.020Z,90876.28
2023-04-28T14:32:37.385Z,90883.56
2023-04-28T14:35:23.698Z,90875.75
2023-04-28T14:38:08.531Z,90872.34
2023-04-28T14:40:53.539Z,90876.97
2023-04-28T14:43:38.366Z,90880.00
2023-04-28T14:46:23.212Z,90869.22
2023-04-28T14:49:07.988Z,90885.97
2023-04-28T14:51:52.819Z,90878.72
2023-04-28T14:54:37.913Z,90872.47
2023-04-28T14:57:22.807Z,90870.47
2023-04-28T15:00:07.844Z,90866.00
2023-04-28T15:02:52.683Z,90873.56
2023-04-28T15:05:37.470Z,90861.38
2023-04-28T15:08:22.373Z,90868.25
2023-04-28T15:11:07.320Z,90873.25
2023-04-28T15:13:52.298Z,90860.22
2023-04-28T15:16:37.282Z,90876.25
2023-04-28T15:19:22.235Z,90867.28
2023-04-28T15:22:06.974Z,90873.44
2023-04-28T15:24:51.827Z,90869.63
2023-04-28T15:27:36.599Z,90876.19
2023-04-28T15:30:21.474Z,90882.00
2023-04-28T15:33:06.230Z,90878.06
2023-04-28T15:35:51.181Z,90868.75
2023-04-28T15:38:36.103Z,90870.25
2023-04-28T15:41:21.012Z,90873.94
2023-04-28T15:44:06.018Z,90877.03
2023-04-28T15:46:50.860Z,90867.97
2023-04-28T15:49:35.731Z,90873.72
2023-04-28T15:52:20.504Z,90864.75
2023-04-28T15:55:05.327Z,90872.97
2023-04-28T15:57:50.228Z,90866.53
2023-04-28T16:00:35.421Z,90864.53
2023-04-28T16:03:20.378Z,90868.94
2023-04-28T16:06:05.172Z,90867.41
2023-04-28T16:08:50.013Z,90862.22
2023-04-28T16:11:34.795Z,90863.31
2023-04-28T16:14:19.695Z,90866.53
2023-04-28T16:17:04.935Z,90859.41
2023-04-28T16:19:49.745Z,90852.97
2023-04-28T16:22:34.588Z,90855.47
2023-04-28T16:25:19.395Z,90851.22
2023-04-28T16:28:04.215Z,90851.03
2023-04-28T16:30:49.102Z,90846.50
2023-04-28T16:33:34.068Z,90859.81
2023-04-28T16:36:18.960Z,90851.97
2023-04-28T16:39:03.954Z,90854.72
2023-04-28T16:41:48.805Z,90858.03
2023-04-28T16:44:33.787Z,90858.75
2023-04-28T16:47:18.544Z,90844.50
2023-04-28T16:50:03.505Z,90844.06
2023-04-28T16:52:48.445Z,90845.31
2023-04-28T16:55:33.439Z,90847.44
2023-04-28T16:58:18.473Z,90852.09
2023-04-28T17:01:03.376Z,90844.97
2023-04-28T17:03:48.573Z,90863.38
2023-04-28T17:06:33.224Z,90872.03
2023-04-28T17:09:18.147Z,90868.41
2023-04-28T17:12:02.995Z,90880.13
2023-04-28T17:14:47.757Z,90869.38
2023-04-28T17:17:32.595Z,90866.22
2023-04-28T17:20:17.429Z,90855.66
2023-04-28T17:23:02.282Z,90873.75
2023-04-28T17:25:47.133Z,90860.94
2023-04-28T17:28:32.340Z,90873.97
2023-04-28T17:31:16.859Z,90866.66
2023-04-28T17:34:01.907Z,90861.91
2023-04-28T17:36:46.699Z,90865.13
2023-04-28T17:39:31.510Z,90875.50
2023-04-28T17:42:16.388Z,90870.22
2023-04-28T17:45:01.274Z,90874.94
2023-04-28T17:47:46.213Z,90881.00
2023-04-28T17:50:30.907Z,90880.72
2023-04-28T17:53:15.911Z,90886.53
2023-04-28T17:56:00.765Z,90879.38
2023-04-28T17:58:45.844Z,90877.94
2023-04-28T18:01:30.559Z,90878.72
2023-04-28T18:04:15.477Z,90876.50
2023-04-28T18:07:00.209Z,90870.13
2023-04-28T18:09:45.079Z,90870.06
2023-04-28T18:12:29.894Z,90871.03
2023-04-28T18:15:14.746Z,90884.63
2023-04-28T18:17:59.873Z,90885.78
2023-04-28T18:20:44.634Z,90882.34
2023-04-28T18:23:29.634Z,90869.50
2023-04-28T18:26:14.324Z,90860.97
2023-04-28T18:28:59.300Z,90864.22
2023-04-28T18:31:44.253Z,90870.47
2023-04-28T18:34:28.967Z,90867.19
2023-04-28T18:37:13.847Z,90877.00
2023-04-28T18:39:58.762Z,90865.84
2023-04-28T18:42:43.601Z,90856.34
2023-04-28T18:45:28.466Z,90866.81
2023-04-28T18:48:13.394Z,90862.00
2023-04-28T18:50:58.233Z,90858.38
2023-04-28T18:53:43.130Z,90853.44
2023-04-28T18:56:28.010Z,90848.81
2023-04-28T18:59:12.852Z,90849.97
2023-04-28T19:01:57.633Z,90851.81
2023-04-28T19:04:42.417Z,90856.47
2023-04-28T19:07:27.251Z,90869.91
2023-04-28T19:10:12.235Z,90854.03
2023-04-28T19:12:57.156Z,90854.66
2023-04-28T19:15:42.031Z,90859.00
2023-04-28T19:18:26.937Z,90865.22
2023-04-28T19:21:11.792Z,90863.38
2023-04-28T19:23:56.679Z,90857.31
2023-04-28T19:26:41.486Z,90871.28
2023-04-28T19:29:26.310Z,90876.56
2023-04-28T19:32:11.233Z,90874.22
2023-04-28T19:34:56.112Z,90877.25
2023-04-28T19:37:41.031Z,90872.53
2023-04-28T19:40:25.988Z,90882.75
2023-04-28T19:43:10.960Z,90891.09
2023-04-28T19:45:55.753Z,90898.69
2023-04-28T19:48:40.567Z,90902.69
2023-04-28T19:51:25.406Z,90899.81
2023-04-28T19:54:10.407Z,90906.34
2023-04-28T19:56:55.271Z,90912.72
2023-04-28T19:59:40.138Z,90913.03
2023-04-28T20:02:25.176Z,90917.22
2023-04-28T20:05:09.876Z,90927.34
2023-04-28T20:07:56.197Z,90926.19
2023-04-28T20:10:41.276Z,90921.53
2023-04-28T20:13:27.938Z,90925.66
2023-04-28T20:16:13.063Z,90916.22
2023-04-28T20:18:57.839Z,90933.09
2023-04-28T20:21:42.646Z,90936.22
2023-04-28T20:24:27.508Z,90951.94
2023-04-28T20:27:12.432Z,90962.47
2023-04-28T20:29:57.356Z,90957.66
2023-04-28T20:32:42.232Z,90960.84
2023-04-28T20:35:27.049Z,90970.03
2023-04-28T20:38:11.894Z,90978.25
2023-04-28T20:40:56.889Z,91005.34
2023-04-28T20:43:41.756Z,91015.25
2023-04-28T20:46:26.826Z,91028.66
2023-04-28T20:49:11.509Z,91035.38
2023-04-28T20:51:56.363Z,91039.63
2023-04-28T20:54:41.251Z,91057.81
2023-04-28T20:57:26.211Z,91057.56
